createdAt,value
2022-12-18T00:15:00.834Z,-1.08
2022-12-18T00:30:03.069Z,-1.06
2022-12-18T00:45:10.707Z,-0.65
2022-12-18T01:00:14.783Z,-0.87
2022-12-18T01:15:17.113Z,-1.36
2022-12-18T01:30:19.266Z,-0.78
2022-12-18T01:45:21.548Z,-0.46
2022-12-18T02:00:23.946Z,-0.61
2022-12-18T02:15:26.139Z,-0.96
2022-12-18T02:30:28.389Z,-0.63
2022-12-18T02:45:30.796Z,-0.68
2022-12-18T03:00:33.018Z,-1.14
2022-12-18T03:15:35.351Z,-0.58
2022-12-18T03:30:37.627Z,-0.57
2022-12-18T03:45:39.890Z,-0.58
2022-12-18T04:00:42.118Z,-1.08
2022-12-18T04:15:44.374Z,-1.67
2022-12-18T04:30:46.669Z,-1.14
2022-12-18T04:45:49.332Z,-1
2022-12-18T05:00:51.551Z,-1.1
2022-12-18T05:15:53.767Z,-0.77
2022-12-18T05:30:56.078Z,-0.97
2022-12-18T05:45:58.399Z,-0.82
2022-12-18T06:01:00.595Z,-0.75
2022-12-18T06:16:03.054Z,-0.78
2022-12-18T06:31:05.376Z,-0.66
2022-12-18T06:46:07.708Z,-0.64
2022-12-18T07:01:10.256Z,-0.55
2022-12-18T07:16:18.336Z,-0.65
2022-12-18T07:31:24.969Z,-0.74
2022-12-18T07:46:27.225Z,-0.33
2022-12-18T08:01:29.604Z,-0.61
2022-12-18T08:16:31.923Z,-0.53
2022-12-18T08:31:34.290Z,-0.63
2022-12-18T08:46:36.655Z,-0.44
2022-12-18T09:01:39.034Z,-0.83
2022-12-18T09:16:41.385Z,-1.4
2022-12-18T09:31:43.687Z,-1.25
2022-12-18T09:46:45.943Z,-1.47
2022-12-18T10:01:48.322Z,-0.98
2022-12-18T10:16:50.574Z,-1
2022-12-18T10:31:52.770Z,-1.11
2022-12-18T10:46:55.040Z,-0.99
2022-12-18T11:01:57.459Z,-1.62
2022-12-18T11:17:25.251Z,-0.82
2022-12-18T11:32:28.645Z,-1.31
2022-12-18T11:47:30.850Z,-1.13
2022-12-18T12:02:33.282Z,-0.94
2022-12-18T12:17:35.584Z,-0.97
2022-12-18T12:32:38.236Z,-0.87
2022-12-18T12:47:40.444Z,-1.02
2022-12-18T13:02:43.104Z,-1.47
2022-12-18T13:17:45.628Z,-1.2
2022-12-18T13:32:48.338Z,-1.22
2022-12-18T13:47:50.844Z,-1.43
2022-12-18T14:02:53.314Z,-1.67
2022-12-18T14:17:55.586Z,-1.36
2022-12-18T14:32:57.807Z,-2.08
2022-12-18T14:48:00.179Z,-1.65
2022-12-18T15:03:02.538Z,-1.35
2022-12-18T15:18:05.134Z,-1.34
2022-12-18T15:33:07.323Z,-1.65
2022-12-18T15:48:09.499Z,-1.3
2022-12-18T16:03:11.902Z,-1.39
2022-12-18T16:18:14.187Z,-1.16
2022-12-18T16:33:16.403Z,-1.1
2022-12-18T16:48:18.598Z,-0.41
2022-12-18T17:03:20.954Z,-0.74
2022-12-18T17:18:23.209Z,-0.43
2022-12-18T17:33:25.440Z,-0.1
2022-12-18T17:48:27.678Z,-0.07
2022-12-18T18:03:30.206Z,-0.87
2022-12-18T18:18:32.587Z,-0.69
2022-12-18T18:33:34.934Z,-1.04
2022-12-18T18:48:37.182Z,-0.37
2022-12-18T19:03:40.526Z,-0.23
2022-12-18T19:18:43.329Z,0.14
2022-12-18T19:33:46.031Z,0.67
2022-12-18T19:48:48.300Z,0.44
2022-12-18T20:03:52.597Z,0.3
2022-12-18T20:18:57.773Z,0.49
2022-12-18T20:34:02.726Z,0.56
2022-12-18T20:49:07.252Z,0.61
2022-12-18T21:04:09.502Z,0.77
2022-12-18T21:19:11.893Z,0.62
2022-12-18T21:34:14.382Z,0.21
2022-12-18T21:49:16.612Z,0.82
2022-12-18T22:04:18.884Z,0.29
2022-12-18T22:19:21.437Z,0.8
2022-12-18T22:34:23.648Z,0.97
2022-12-18T22:49:25.886Z,0.32
2022-12-18T23:04:28.072Z,0.76
2022-12-18T23:19:34.364Z,-0.13
2022-12-18T23:34:36.582Z,0.15
2022-12-18T23:49:38.784Z,0.43
